Time;durP1;ratioP1;P1;durP2;ratioP2;P2;SDS_P1;SDS_P2;PMS_P1;PMS_P2;Temp;Humidity;BMP_temperature;BMP_pressure;BME280_temperature;BME280_humidity;BME280_pressure;Samples;Min_cycle;Max_cycle;Signal;HPM_P1;HPM_P2
2022/03/01 00:02:03;;;;;;;5.63;3.00;;;11.10;85.90;;;;;;5131557;27;20027;-76
2022/03/01 00:04:29;;;;;;;6.28;2.75;;;11.00;86.10;;;;;;5114708;27;20050;-76
2022/03/01 00:06:54;;;;;;;4.78;2.72;;;11.00;86.00;;;;;;5114398;27;20049;-76
2022/03/01 00:09:20;;;;;;;5.22;2.58;;;11.10;86.80;;;;;;5133221;27;20559;-76
2022/03/01 00:11:45;;;;;;;6.22;2.90;;;11.10;86.60;;;;;;5134476;27;20030;-76
2022/03/01 00:14:11;;;;;;;7.60;2.90;;;11.10;86.70;;;;;;5133992;27;20352;-75
2022/03/01 00:16:37;;;;;;;4.70;2.70;;;11.10;86.60;;;;;;5114115;27;20104;-75
2022/03/01 00:19:03;;;;;;;7.32;3.13;;;11.00;86.80;;;;;;5132588;27;20045;-75
2022/03/01 00:21:29;;;;;;;5.55;2.65;;;11.00;87.00;;;;;;5133021;27;20428;-75
2022/03/01 00:23:55;;;;;;;4.40;2.60;;;11.00;87.20;;;;;;5133822;27;20027;-75
2022/03/01 00:26:21;;;;;;;4.10;2.60;;;11.00;87.30;;;;;;5132588;27;20035;-75
2022/03/01 00:28:47;;;;;;;3.50;2.33;;;11.00;87.60;;;;;;5114518;27;20008;-75
2022/03/01 00:31:13;;;;;;;4.05;2.67;;;11.00;87.50;;;;;;5132513;27;20042;-75
2022/03/01 00:33:39;;;;;;;6.28;2.80;;;11.00;87.60;;;;;;5132811;27;20020;-75
2022/03/01 00:36:05;;;;;;;4.78;2.65;;;11.00;87.70;;;;;;5132307;27;20110;-75
2022/03/01 00:38:30;;;;;;;4.97;2.65;;;11.00;87.60;;;;;;5116123;27;20375;-75
2022/03/01 00:40:57;;;;;;;4.30;2.75;;;11.00;87.70;;;;;;5130966;27;20019;-75
2022/03/01 00:43:23;;;;;;;6.15;2.97;;;11.00;87.70;;;;;;5113897;27;20043;-75
2022/03/01 00:45:50;;;;;;;7.30;3.20;;;11.00;87.80;;;;;;5113638;27;20037;-75
2022/03/01 00:48:16;;;;;;;5.38;2.80;;;11.00;88.00;;;;;;5132470;27;20069;-75
2022/03/01 00:50:41;;;;;;;8.07;2.85;;;11.00;88.00;;;;;;5134119;27;20031;-75
2022/03/01 00:53:07;;;;;;;8.10;3.42;;;11.00;88.20;;;;;;5131066;27;20052;-75
2022/03/01 00:55:33;;;;;;;5.53;2.90;;;11.00;87.90;;;;;;5132207;27;20046;-76
2022/03/01 00:57:59;;;;;;;6.18;3.10;;;10.90;87.80;;;;;;5132197;27;20106;-75
2022/03/01 01:00:25;;;;;;;7.25;2.60;;;10.90;88.20;;;;;;5113278;27;20110;-75
2022/03/01 01:02:51;;;;;;;6.80;2.92;;;11.00;88.70;;;;;;5132114;27;20023;-75
2022/03/01 01:05:16;;;;;;;6.70;2.78;;;10.90;88.60;;;;;;5133358;27;20445;-74
2022/03/01 01:07:42;;;;;;;5.15;2.97;;;11.00;88.80;;;;;;5113424;27;20029;-75
2022/03/01 01:10:09;;;;;;;6.30;2.90;;;11.00;88.90;;;;;;5132022;27;20019;-75
2022/03/01 01:12:35;;;;;;;5.07;3.13;;;11.00;88.90;;;;;;5131869;27;20114;-75
2022/03/01 01:15:02;;;;;;;5.25;2.50;;;11.00;89.10;;;;;;5131439;27;20026;-75
2022/03/01 01:17:27;;;;;;;6.97;3.05;;;10.90;88.70;;;;;;5133961;27;20015;-75
2022/03/01 01:19:53;;;;;;;4.35;2.55;;;11.00;89.00;;;;;;5130370;27;20487;-75
2022/03/01 01:25:04;;;;;;;5.80;3.00;;;11.00;89.00;;;;;;5131775;27;20452;-76
2022/03/01 01:27:30;;;;;;;6.05;3.30;;;11.00;88.80;;;;;;5131716;27;20015;-75
2022/03/01 01:29:56;;;;;;;6.95;3.60;;;11.00;88.70;;;;;;5131483;27;20414;-75
2022/03/01 01:32:22;;;;;;;6.15;3.35;;;11.00;89.10;;;;;;5133561;27;20019;-75
2022/03/01 01:34:47;;;;;;;5.28;3.22;;;11.00;88.90;;;;;;5131439;27;20035;-75
2022/03/01 01:37:13;;;;;;;4.95;3.30;;;11.00;89.00;;;;;;5131407;27;20122;-75
2022/03/01 01:39:39;;;;;;;6.00;3.10;;;11.00;89.10;;;;;;5131513;27;20082;-76
2022/03/01 01:42:05;;;;;;;6.60;3.55;;;11.00;89.20;;;;;;5131112;27;20027;-78
2022/03/01 01:44:32;;;;;;;6.75;2.95;;;10.90;89.40;;;;;;5132092;27;20043;-75
2022/03/01 01:46:57;;;;;;;5.95;3.15;;;10.90;89.20;;;;;;5131328;27;20029;-75
2022/03/01 01:49:23;;;;;;;7.00;3.72;;;10.90;88.90;;;;;;5131311;27;20022;-75
2022/03/01 01:51:49;;;;;;;4.97;3.40;;;10.90;88.90;;;;;;5131193;27;20023;-75
2022/03/01 01:54:14;;;;;;;5.15;3.25;;;10.90;89.00;;;;;;5131387;27;20062;-75
2022/03/01 01:56:40;;;;;;;7.28;3.35;;;10.90;89.10;;;;;;5133410;27;20091;-75
2022/03/01 01:59:06;;;;;;;5.63;3.40;;;10.90;89.00;;;;;;5129391;27;20031;-76
2022/03/01 02:01:31;;;;;;;7.20;3.38;;;11.00;89.30;;;;;;5131100;27;20031;-75
2022/03/01 02:03:59;;;;;;;5.88;3.47;;;11.00;89.10;;;;;;5131000;27;20023;-75
2022/03/01 02:06:26;;;;;;;5.97;3.10;;;11.00;89.80;;;;;;5131171;28;20027;-76
2022/03/01 02:08:52;;;;;;;7.05;3.28;;;11.00;89.20;;;;;;5132083;27;20031;-75
2022/03/01 02:11:17;;;;;;;5.35;3.30;;;11.00;89.10;;;;;;5132463;27;20027;-76
2022/03/01 02:13:43;;;;;;;7.15;3.30;;;11.00;89.10;;;;;;5132488;27;20030;-76
2022/03/01 02:16:09;;;;;;;6.68;3.13;;;11.00;89.30;;;;;;5135250;27;20027;-75
2022/03/01 02:18:35;;;;;;;6.43;3.75;;;11.00;89.40;;;;;;5135352;27;20019;-75
2022/03/01 02:21:01;;;;;;;8.10;3.63;;;11.00;89.40;;;;;;5135288;27;20106;-76
2022/03/01 02:23:27;;;;;;;5.68;3.55;;;11.00;89.50;;;;;;5135791;27;20102;-75
2022/03/01 02:25:53;;;;;;;4.93;3.33;;;11.00;89.60;;;;;;5135119;27;20034;-75
2022/03/01 02:28:19;;;;;;;6.15;3.92;;;11.00;89.60;;;;;;5134696;27;20112;-75
2022/03/01 02:30:44;;;;;;;7.57;3.53;;;11.00;89.50;;;;;;5135043;27;20487;-78
2022/03/01 02:33:10;;;;;;;5.95;3.38;;;10.90;89.70;;;;;;5116503;27;20020;-75
2022/03/01 02:35:36;;;;;;;6.22;3.53;;;10.90;89.60;;;;;;5137018;27;20092;-76
2022/03/01 02:38:02;;;;;;;5.97;3.70;;;10.90;90.00;;;;;;5133497;27;20115;-75
2022/03/01 02:40:27;;;;;;;6.05;3.20;;;10.90;90.00;;;;;;5134829;27;20030;-75
2022/03/01 02:42:53;;;;;;;5.13;3.40;;;10.90;90.00;;;;;;5134314;27;20027;-78
2022/03/01 02:45:19;;;;;;;4.88;3.70;;;11.00;90.00;;;;;;5134889;27;20035;-75
2022/03/01 02:47:45;;;;;;;6.80;3.92;;;10.90;90.30;;;;;;5136235;27;20472;-77
2022/03/01 02:50:12;;;;;;;5.30;3.28;;;10.90;90.00;;;;;;5133914;27;20031;-77
2022/03/01 02:52:38;;;;;;;6.47;3.58;;;10.90;90.00;;;;;;5134580;27;20328;-75
2022/03/01 02:55:05;;;;;;;7.10;3.85;;;10.90;90.00;;;;;;5134409;27;20045;-75
2022/03/01 02:57:31;;;;;;;6.72;3.80;;;10.90;90.00;;;;;;5134305;27;20475;-78
2022/03/01 02:59:57;;;;;;;9.10;4.07;;;10.90;90.10;;;;;;5135376;27;20483;-75
2022/03/01 03:02:23;;;;;;;6.45;3.45;;;10.90;90.10;;;;;;5134365;27;20111;-77
2022/03/01 03:04:49;;;;;;;7.60;4.00;;;10.90;90.00;;;;;;5133451;27;20046;-75
2022/03/01 03:07:15;;;;;;;8.95;3.70;;;10.90;90.50;;;;;;5134162;27;20054;-75
2022/03/01 03:09:41;;;;;;;5.75;3.55;;;10.90;90.10;;;;;;5133810;27;20068;-75
2022/03/01 03:12:08;;;;;;;7.38;3.65;;;10.90;90.10;;;;;;5133551;27;20027;-75
2022/03/01 03:14:35;;;;;;;6.85;3.70;;;10.90;90.10;;;;;;5135794;27;20097;-75
2022/03/01 03:17:00;;;;;;;5.47;3.53;;;10.90;90.10;;;;;;5131885;27;20027;-76
2022/03/01 03:19:26;;;;;;;6.38;3.50;;;10.90;90.20;;;;;;5133511;27;20019;-76
2022/03/01 03:21:52;;;;;;;6.95;3.90;;;10.90;90.10;;;;;;5114840;27;20522;-76
2022/03/01 03:24:18;;;;;;;8.90;4.15;;;10.90;90.20;;;;;;5133123;27;20055;-76
2022/03/01 03:26:43;;;;;;;6.57;4.20;;;10.90;90.20;;;;;;5116186;27;20055;-76
2022/03/01 03:29:09;;;;;;;7.32;4.15;;;10.90;90.20;;;;;;5133801;27;20102;-75
2022/03/01 03:31:41;;;;;;;7.20;3.97;;;10.90;90.10;;;;;;5133346;27;20066;-75
2022/03/01 03:34:09;;;;;;;8.80;3.78;;;10.90;90.20;;;;;;5114901;27;20023;-75
2022/03/01 03:36:36;;;;;;;5.20;3.58;;;10.90;90.10;;;;;;5133286;27;20121;-75
2022/03/01 03:39:04;;;;;;;7.00;3.83;;;10.80;90.20;;;;;;5132918;27;20022;-75
2022/03/01 03:41:29;;;;;;;6.28;3.67;;;10.80;90.20;;;;;;5134045;27;20035;-75
2022/03/01 03:43:55;;;;;;;7.20;3.70;;;10.80;90.20;;;;;;5133195;27;20043;-75
2022/03/01 03:46:21;;;;;;;6.85;3.60;;;10.80;90.20;;;;;;5132949;27;20102;-75
2022/03/01 03:48:48;;;;;;;6.55;3.55;;;10.80;90.20;;;;;;5132972;27;20025;-77
2022/03/01 03:51:14;;;;;;;5.38;3.25;;;10.80;90.20;;;;;;5133310;27;20522;-78
2022/03/01 03:53:39;;;;;;;5.47;3.55;;;10.80;90.20;;;;;;5116198;27;20502;-75
2022/03/01 03:56:05;;;;;;;7.07;3.50;;;10.80;90.30;;;;;;5131460;27;20031;-76
2022/03/01 03:58:31;;;;;;;6.07;3.50;;;10.90;90.30;;;;;;5114348;27;20031;-75
2022/03/01 04:00:57;;;;;;;7.18;3.60;;;10.90;90.30;;;;;;5114349;27;20072;-76
2022/03/01 04:03:23;;;;;;;6.43;4.10;;;10.90;90.40;;;;;;5133043;27;20038;-75
2022/03/01 04:05:50;;;;;;;5.60;3.58;;;10.90;90.40;;;;;;5134111;27;20537;-75
2022/03/01 04:08:16;;;;;;;5.13;3.33;;;10.90;90.30;;;;;;5111703;28;20023;-76
2022/03/01 04:10:43;;;;;;;6.00;3.80;;;10.90;90.30;;;;;;5109473;27;20586;-76
2022/03/01 04:13:09;;;;;;;5.55;3.80;;;10.90;90.70;;;;;;5114101;27;20030;-76
2022/03/01 04:15:35;;;;;;;5.55;3.60;;;10.90;90.30;;;;;;5132534;27;20110;-76
2022/03/01 04:18:01;;;;;;;8.60;3.45;;;10.90;90.30;;;;;;5132629;27;20111;-78
2022/03/01 04:20:27;;;;;;;5.13;3.60;;;10.90;90.30;;;;;;5132982;27;20491;-76
2022/03/01 04:22:53;;;;;;;5.78;3.55;;;11.00;90.50;;;;;;5131962;27;20020;-76
2022/03/01 04:25:18;;;;;;;6.95;3.70;;;11.00;90.30;;;;;;5132294;27;20433;-76
2022/03/01 04:27:44;;;;;;;6.32;4.03;;;11.00;90.40;;;;;;5132496;27;20052;-76
2022/03/01 04:30:13;;;;;;;6.53;3.75;;;11.00;90.20;;;;;;5132246;27;20111;-75
2022/03/01 04:32:40;;;;;;;7.55;4.00;;;11.00;90.20;;;;;;5129797;27;20051;-75
2022/03/01 04:35:08;;;;;;;5.13;3.38;;;11.00;90.20;;;;;;5131915;27;20020;-75
2022/03/01 04:37:37;;;;;;;9.10;3.60;;;10.90;90.20;;;;;;5131578;27;20114;-76
2022/03/01 04:40:05;;;;;;;5.25;3.33;;;10.90;90.30;;;;;;5131921;27;20039;-75
2022/03/01 04:42:31;;;;;;;6.80;3.85;;;11.00;90.40;;;;;;5132334;27;20027;-75
2022/03/01 04:44:57;;;;;;;7.78;4.10;;;10.90;90.30;;;;;;5113519;27;20040;-75
2022/03/01 04:47:23;;;;;;;6.13;3.95;;;10.90;90.30;;;;;;5113403;27;20129;-75
2022/03/01 04:49:49;;;;;;;5.75;3.90;;;11.00;90.30;;;;;;5113341;27;20462;-75
2022/03/01 04:52:15;;;;;;;5.55;3.80;;;11.00;90.40;;;;;;5112868;27;20452;-75
2022/03/01 04:54:40;;;;;;;9.80;4.00;;;10.90;90.40;;;;;;5132014;27;20490;-75
2022/03/01 04:57:06;;;;;;;7.40;4.28;;;10.90;90.30;;;;;;5131980;27;20062;-75
2022/03/01 04:59:32;;;;;;;6.53;3.60;;;10.90;90.40;;;;;;5115325;27;20460;-75
2022/03/01 05:01:58;;;;;;;10.00;4.25;;;10.90;90.40;;;;;;5131446;27;20022;-75
2022/03/01 05:04:23;;;;;;;7.80;4.07;;;10.90;90.30;;;;;;5131830;27;20098;-75
2022/03/01 05:06:49;;;;;;;6.32;3.97;;;10.90;90.40;;;;;;5129789;27;20427;-76
2022/03/01 05:09:15;;;;;;;7.10;3.90;;;10.90;90.40;;;;;;5131598;27;20027;-75
2022/03/01 05:11:41;;;;;;;6.38;3.90;;;11.00;90.40;;;;;;5133515;27;20822;-76
2022/03/01 05:14:07;;;;;;;7.90;3.58;;;10.90;90.40;;;;;;5130260;27;20105;-76
2022/03/01 05:16:32;;;;;;;10.25;4.32;;;10.90;90.40;;;;;;5130989;27;20023;-76
2022/03/01 05:18:58;;;;;;;7.05;4.32;;;10.90;90.30;;;;;;5131248;27;20027;-75
2022/03/01 05:21:24;;;;;;;8.25;4.40;;;10.90;90.40;;;;;;5131291;27;20027;-78
2022/03/01 05:23:49;;;;;;;9.13;4.25;;;10.90;90.50;;;;;;5132419;27;20019;-76
2022/03/01 05:26:15;;;;;;;5.32;3.85;;;10.90;90.50;;;;;;5132058;27;20042;-75
2022/03/01 05:28:41;;;;;;;7.15;4.43;;;10.90;90.60;;;;;;5130922;27;20021;-76
2022/03/01 05:31:07;;;;;;;5.75;3.88;;;10.90;90.90;;;;;;5112373;27;20027;-76
2022/03/01 05:33:33;;;;;;;5.55;3.80;;;10.90;90.50;;;;;;5112860;27;20468;-76
2022/03/01 05:35:59;;;;;;;6.70;4.30;;;10.90;90.60;;;;;;5131158;27;20046;-76
2022/03/01 05:38:24;;;;;;;7.57;4.10;;;10.90;90.50;;;;;;5131031;27;20059;-75
2022/03/01 05:40:50;;;;;;;7.35;4.20;;;10.90;90.60;;;;;;5130661;27;20022;-75
2022/03/01 05:43:16;;;;;;;8.75;4.35;;;10.90;90.60;;;;;;5131016;27;20043;-75
2022/03/01 05:45:41;;;;;;;8.25;4.45;;;10.90;90.50;;;;;;5130760;27;20106;-75
2022/03/01 05:48:08;;;;;;;8.45;4.43;;;11.00;90.50;;;;;;5130231;27;20551;-76
2022/03/01 05:50:33;;;;;;;8.48;4.78;;;10.90;90.50;;;;;;5132659;27;20526;-75
2022/03/01 05:52:59;;;;;;;8.35;4.43;;;10.90;90.60;;;;;;5129068;27;20015;-76
2022/03/01 05:55:25;;;;;;;9.45;4.55;;;10.90;90.60;;;;;;5130958;27;20122;-75
2022/03/01 05:57:50;;;;;;;10.85;4.47;;;10.90;90.60;;;;;;5112229;27;20030;-75
2022/03/01 06:00:18;;;;;;;7.78;4.88;;;10.90;90.60;;;;;;5130645;27;20484;-75
2022/03/01 06:02:45;;;;;;;9.38;4.50;;;10.90;90.70;;;;;;5132418;27;20015;-75
2022/03/01 06:05:12;;;;;;;8.32;4.45;;;10.90;90.60;;;;;;5129297;27;20175;-75
2022/03/01 06:07:38;;;;;;;7.28;4.18;;;10.90;90.80;;;;;;5130514;27;20019;-76
2022/03/01 06:10:05;;;;;;;6.57;4.50;;;10.90;90.70;;;;;;5130850;27;20027;-76
2022/03/01 06:12:30;;;;;;;7.82;4.80;;;10.90;90.70;;;;;;5130453;28;20018;-76
2022/03/01 06:14:56;;;;;;;8.82;4.80;;;10.90;90.90;;;;;;5131347;28;20027;-76
2022/03/01 06:17:22;;;;;;;11.02;5.53;;;10.90;90.90;;;;;;5130068;27;20127;-76
2022/03/01 06:19:47;;;;;;;7.60;5.45;;;10.90;90.90;;;;;;5130319;27;20069;-76
2022/03/01 06:22:13;;;;;;;8.38;4.80;;;10.90;90.80;;;;;;5130166;28;20051;-76
2022/03/01 06:24:41;;;;;;;8.57;4.85;;;10.90;90.90;;;;;;5130736;27;20019;-76
2022/03/01 06:27:06;;;;;;;10.27;5.30;;;10.90;90.90;;;;;;5112031;28;20529;-76
2022/03/01 06:29:33;;;;;;;9.15;5.05;;;10.90;91.00;;;;;;5132393;27;20023;-76
2022/03/01 06:31:58;;;;;;;10.07;5.05;;;10.90;91.00;;;;;;5110613;27;20027;-76
2022/03/01 06:34:24;;;;;;;8.20;5.15;;;10.90;91.00;;;;;;5129943;27;20151;-76
2022/03/01 06:36:49;;;;;;;9.05;5.50;;;10.90;90.90;;;;;;5130262;27;20110;-76
2022/03/01 06:39:15;;;;;;;11.45;5.60;;;10.90;91.00;;;;;;5130681;27;20035;-76
2022/03/01 06:41:41;;;;;;;14.07;5.63;;;10.90;91.00;;;;;;5132283;27;20027;-76
2022/03/01 06:44:06;;;;;;;8.52;5.63;;;10.90;91.10;;;;;;5129932;27;20145;-76
2022/03/01 06:46:32;;;;;;;9.73;5.35;;;10.90;91.00;;;;;;5130145;28;20023;-76
2022/03/01 06:48:58;;;;;;;10.90;6.15;;;10.90;91.00;;;;;;5129665;27;20031;-76
2022/03/01 06:51:24;;;;;;;10.15;5.57;;;10.90;91.10;;;;;;5130277;27;20019;-76
2022/03/01 06:53:50;;;;;;;10.70;5.72;;;10.90;91.10;;;;;;5131225;28;20387;-76
2022/03/01 06:56:15;;;;;;;13.55;6.28;;;10.90;91.10;;;;;;5112398;28;20042;-76
2022/03/01 06:58:41;;;;;;;12.13;6.15;;;11.00;91.20;;;;;;5129798;27;20023;-76
2022/03/01 07:01:07;;;;;;;9.00;5.80;;;10.90;91.60;;;;;;5133869;27;20035;-76
2022/03/01 07:03:34;;;;;;;10.05;6.30;;;10.90;91.20;;;;;;5133611;27;20023;-76
2022/03/01 07:06:00;;;;;;;11.35;5.70;;;10.90;91.20;;;;;;5133709;27;20160;-77
2022/03/01 07:08:25;;;;;;;12.88;6.25;;;11.00;91.20;;;;;;5135463;27;20076;-76
2022/03/01 07:10:52;;;;;;;9.55;6.10;;;11.00;91.40;;;;;;5132910;27;20038;-76
2022/03/01 07:13:17;;;;;;;13.13;6.30;;;10.90;91.30;;;;;;5114338;27;20023;-77
2022/03/01 07:15:43;;;;;;;15.50;7.75;;;10.90;91.40;;;;;;5132018;27;20035;-78
2022/03/01 07:18:09;;;;;;;15.52;6.78;;;10.90;91.40;;;;;;5132449;27;20072;-76
2022/03/01 07:20:35;;;;;;;14.45;6.68;;;10.90;92.00;;;;;;5116570;27;20035;-76
2022/03/01 07:23:02;;;;;;;16.00;7.53;;;10.90;91.80;;;;;;5132628;27;20522;-77
2022/03/01 07:25:27;;;;;;;12.48;6.50;;;10.90;91.80;;;;;;5134158;27;20488;-77
2022/03/01 07:27:54;;;;;;;12.80;7.13;;;10.90;91.70;;;;;;5132388;27;20096;-76
2022/03/01 07:30:24;;;;;;;11.57;6.53;;;10.90;91.80;;;;;;5133027;27;20024;-76
2022/03/01 07:32:52;;;;;;;14.43;7.28;;;11.00;92.10;;;;;;5134394;27;20015;-77
2022/03/01 07:35:19;;;;;;;14.77;6.95;;;11.00;92.30;;;;;;5133638;27;20023;-76
2022/03/01 07:37:45;;;;;;;16.00;7.45;;;11.00;92.00;;;;;;5137513;27;20121;-76
2022/03/01 07:40:13;;;;;;;12.50;6.78;;;11.10;91.90;;;;;;5135272;27;20063;-76
2022/03/01 07:42:39;;;;;;;15.82;7.45;;;11.10;91.90;;;;;;5140244;27;20563;-76
2022/03/01 07:45:05;;;;;;;11.02;6.85;;;11.10;91.80;;;;;;5113799;27;20400;-76
2022/03/01 07:47:31;;;;;;;12.88;6.28;;;11.10;92.00;;;;;;5134290;27;20049;-76
2022/03/01 07:49:57;;;;;;;13.52;6.22;;;11.10;92.00;;;;;;5132869;27;20054;-76
2022/03/01 07:52:23;;;;;;;10.88;6.68;;;11.10;91.90;;;;;;5132904;27;20068;-76
2022/03/01 07:54:48;;;;;;;9.93;6.03;;;11.10;92.00;;;;;;5133348;27;20031;-76
2022/03/01 07:57:15;;;;;;;10.75;6.03;;;11.10;91.90;;;;;;5132631;27;20810;-79
2022/03/01 07:59:41;;;;;;;10.45;5.55;;;11.10;91.80;;;;;;5132340;27;20021;-79
2022/03/01 08:02:07;;;;;;;10.45;5.78;;;11.20;91.90;;;;;;5112828;27;20511;-79
2022/03/01 08:04:33;;;;;;;10.98;5.80;;;11.20;92.00;;;;;;5132093;27;20023;-77
2022/03/01 08:06:58;;;;;;;10.40;6.40;;;11.30;92.00;;;;;;5122843;27;20031;-78
2022/03/01 08:09:24;;;;;;;10.48;6.20;;;11.40;92.00;;;;;;5120152;27;20123;-78
2022/03/01 08:11:50;;;;;;;10.93;6.57;;;11.50;91.90;;;;;;5127241;27;20020;-80
2022/03/01 08:14:16;;;;;;;11.52;5.90;;;11.60;91.70;;;;;;5132414;27;20445;-79
2022/03/01 08:16:41;;;;;;;12.65;5.72;;;11.60;91.60;;;;;;5126581;27;20032;-79
2022/03/01 08:19:07;;;;;;;10.23;5.43;;;11.70;91.40;;;;;;5147144;27;20019;-79
2022/03/01 08:21:33;;;;;;;11.85;5.82;;;11.70;91.40;;;;;;5130592;27;20027;-79
2022/03/01 08:23:58;;;;;;;10.70;5.75;;;11.80;91.40;;;;;;5131370;27;20435;-80
2022/03/01 08:26:24;;;;;;;12.20;6.03;;;11.90;91.40;;;;;;5133607;27;20023;-80
2022/03/01 08:28:50;;;;;;;9.73;5.38;;;12.00;91.20;;;;;;5132831;27;20027;-80
2022/03/01 08:31:16;;;;;;;8.40;5.78;;;12.00;91.60;;;;;;5130901;27;20024;-80
2022/03/01 08:33:42;;;;;;;11.05;5.95;;;12.10;91.20;;;;;;5112686;27;20110;-79
2022/03/01 08:36:08;;;;;;;11.60;6.25;;;12.20;91.20;;;;;;5130987;27;20113;-80
2022/03/01 08:38:34;;;;;;;11.13;5.72;;;12.20;90.90;;;;;;5133015;27;20398;-80
2022/03/01 08:41:00;;;;;;;13.07;5.72;;;12.20;90.70;;;;;;5112236;27;20030;-81
2022/03/01 08:43:25;;;;;;;11.65;6.07;;;12.30;90.80;;;;;;5130641;27;20551;-80
2022/03/01 08:45:51;;;;;;;12.07;5.70;;;12.30;90.80;;;;;;5130535;27;20023;-80
2022/03/01 08:48:17;;;;;;;11.00;6.15;;;12.40;90.70;;;;;;5130311;27;20024;-80
2022/03/01 08:50:43;;;;;;;11.15;5.55;;;12.40;90.60;;;;;;5113581;27;20030;-80
2022/03/01 08:53:09;;;;;;;8.10;5.18;;;12.40;90.50;;;;;;5131601;27;20036;-81
2022/03/01 08:55:35;;;;;;;8.70;5.60;;;12.50;90.50;;;;;;5131453;27;20101;-80
2022/03/01 08:58:01;;;;;;;7.80;5.25;;;12.60;90.50;;;;;;5129097;27;20030;-80
2022/03/01 09:00:28;;;;;;;12.98;5.70;;;12.60;90.50;;;;;;5130131;27;20047;-80
2022/03/01 09:02:54;;;;;;;11.95;5.00;;;12.70;90.30;;;;;;5129988;27;20037;-79
2022/03/01 09:05:19;;;;;;;10.57;5.28;;;12.80;90.10;;;;;;5130728;27;20031;-79
2022/03/01 09:07:45;;;;;;;7.97;5.03;;;12.80;90.40;;;;;;5110727;27;20056;-79
2022/03/01 09:10:11;;;;;;;9.05;5.43;;;12.80;89.90;;;;;;5130605;27;20023;-79
2022/03/01 09:12:36;;;;;;;10.20;5.35;;;12.80;89.50;;;;;;5127854;27;20055;-79
2022/03/01 09:15:04;;;;;;;10.15;5.45;;;12.90;89.50;;;;;;5112008;27;20475;-79
2022/03/01 09:17:30;;;;;;;9.60;5.47;;;12.90;89.50;;;;;;5132153;27;20019;-79
2022/03/01 09:19:55;;;;;;;10.68;5.13;;;12.80;89.20;;;;;;5131493;27;20079;-79
2022/03/01 09:22:21;;;;;;;10.18;5.18;;;12.90;89.30;;;;;;5130635;27;20411;-79
2022/03/01 09:24:47;;;;;;;10.05;4.65;;;12.90;89.30;;;;;;5112074;27;20487;-79
2022/03/01 09:27:12;;;;;;;9.30;4.88;;;12.80;89.00;;;;;;5130041;27;20020;-79
2022/03/01 09:29:40;;;;;;;9.60;4.95;;;12.80;89.20;;;;;;5132199;27;20042;-80
2022/03/01 09:32:05;;;;;;;9.10;4.88;;;12.90;89.20;;;;;;5129297;27;20034;-79
2022/03/01 09:34:31;;;;;;;9.65;5.07;;;12.90;88.70;;;;;;5130403;27;20487;-80
2022/03/01 09:36:57;;;;;;;9.07;5.22;;;12.90;88.80;;;;;;5130504;27;20027;-79
2022/03/01 09:39:23;;;;;;;11.52;5.22;;;13.00;88.70;;;;;;5129914;27;20170;-80
2022/03/01 09:41:50;;;;;;;9.65;5.03;;;13.10;87.90;;;;;;5130540;27;20399;-80
2022/03/01 09:44:16;;;;;;;8.40;4.68;;;13.10;88.00;;;;;;5131155;27;20038;-80
2022/03/01 09:46:43;;;;;;;8.15;4.50;;;13.10;88.40;;;;;;5130633;27;20042;-80
2022/03/01 09:49:09;;;;;;;8.25;4.50;;;13.20;88.30;;;;;;5129372;27;20030;-79
2022/03/01 09:51:37;;;;;;;7.75;4.53;;;13.40;87.90;;;;;;5129830;27;20126;-79
2022/03/01 09:54:03;;;;;;;10.35;4.65;;;13.50;87.40;;;;;;5129296;27;20026;-80
2022/03/01 09:56:29;;;;;;;9.20;4.53;;;13.50;87.00;;;;;;5130637;27;20038;-79
2022/03/01 09:58:55;;;;;;;7.47;4.45;;;13.60;87.00;;;;;;5128095;27;20019;-79
2022/03/01 10:01:22;;;;;;;7.32;4.30;;;13.60;86.20;;;;;;5128802;27;20023;-79
2022/03/01 10:03:49;;;;;;;8.05;3.65;;;13.70;86.50;;;;;;5129705;27;20072;-79
2022/03/01 10:06:17;;;;;;;9.00;4.35;;;13.70;85.40;;;;;;5130985;27;20449;-80
2022/03/01 10:08:44;;;;;;;6.68;3.70;;;13.70;85.40;;;;;;5130039;27;20019;-79
2022/03/01 10:11:10;;;;;;;7.18;3.72;;;13.70;85.50;;;;;;5130909;27;20038;-79
2022/03/01 10:13:38;;;;;;;8.75;3.95;;;13.80;85.10;;;;;;5130515;27;20072;-80
2022/03/01 10:16:05;;;;;;;6.40;3.90;;;13.90;85.20;;;;;;5138838;27;20448;-80
2022/03/01 10:18:33;;;;;;;6.47;3.42;;;13.90;85.00;;;;;;5129518;27;20054;-79
2022/03/01 10:21:05;;;;;;;6.65;3.65;;;14.00;84.10;;;;;;5132216;27;20007;-79
2022/03/01 10:23:32;;;;;;;7.20;3.22;;;13.90;84.20;;;;;;5113499;28;20071;-80
2022/03/01 10:25:57;;;;;;;6.05;3.50;;;14.00;83.90;;;;;;5129903;27;20019;-80
2022/03/01 10:28:53;;;;;;;7.13;3.60;;;14.00;83.30;;;;;;5114235;27;20080;-80
2022/03/01 10:31:28;;;;;;;15.77;9.52;;;13.90;84.00;;;;;;5121264;27;20047;-79
2022/03/01 10:34:08;;;;;;;6.20;4.00;;;13.90;83.70;;;;;;5134151;27;20030;-79
2022/03/01 10:36:49;;;;;;;7.60;4.40;;;13.90;83.60;;;;;;5132004;27;20065;-79
2022/03/01 10:39:17;;;;;;;7.97;4.05;;;14.00;84.20;;;;;;5135607;27;20072;-78
2022/03/01 10:41:48;;;;;;;9.43;3.60;;;14.10;83.20;;;;;;5133364;27;20015;-78
2022/03/01 10:44:23;;;;;;;6.95;3.88;;;14.20;83.50;;;;;;5148358;27;20831;-79
2022/03/01 10:46:52;;;;;;;8.77;3.65;;;14.20;82.50;;;;;;5118258;27;20037;-79
2022/03/01 10:49:31;;;;;;;5.63;3.85;;;14.30;82.30;;;;;;5132550;27;20027;-79
2022/03/01 10:51:59;;;;;;;6.75;3.70;;;14.20;82.00;;;;;;5119735;27;20072;-79
2022/03/01 10:54:31;;;;;;;10.25;4.18;;;14.30;82.50;;;;;;5116932;27;20035;-82
2022/03/01 10:56:57;;;;;;;6.03;3.83;;;14.40;82.00;;;;;;5136605;27;20035;-80
2022/03/01 10:59:29;;;;;;;6.85;4.25;;;14.40;81.60;;;;;;5116810;27;20027;-80
2022/03/01 11:01:56;;;;;;;6.63;4.07;;;14.40;81.80;;;;;;5132201;27;20080;-79
2022/03/01 11:04:24;;;;;;;6.75;3.88;;;14.40;82.10;;;;;;5132790;27;20477;-79
2022/03/01 11:06:51;;;;;;;7.55;4.15;;;14.40;81.90;;;;;;5132977;27;20085;-79
2022/03/01 11:09:17;;;;;;;8.00;4.68;;;14.40;81.60;;;;;;5133580;27;20440;-80
2022/03/01 11:11:45;;;;;;;9.40;4.32;;;14.40;81.10;;;;;;5119017;27;20114;-80
2022/03/01 11:14:14;;;;;;;7.55;4.22;;;14.30;81.20;;;;;;5143406;27;20027;-80
2022/03/01 11:17:08;;;;;;;9.70;4.40;;;14.30;81.60;;;;;;5138379;27;20134;-80
2022/03/01 11:19:58;;;;;;;7.43;4.85;;;14.40;82.30;;;;;;5144235;27;20018;-79
2022/03/01 11:22:43;;;;;;;8.10;4.93;;;14.70;82.80;;;;;;5141899;27;20034;-79
2022/03/01 11:25:27;;;;;;;7.28;4.53;;;14.80;82.60;;;;;;5132373;27;20082;-79
2022/03/01 11:28:02;;;;;;;7.35;4.57;;;15.00;81.50;;;;;;5133546;27;20026;-79
2022/03/01 11:30:32;;;;;;;7.13;4.35;;;14.90;80.00;;;;;;5133200;27;20023;-80
2022/03/01 11:32:59;;;;;;;8.02;4.65;;;14.80;79.40;;;;;;5114987;27;20030;-78
2022/03/01 11:35:27;;;;;;;6.78;5.05;;;14.80;79.30;;;;;;5134962;27;20051;-78
2022/03/01 11:38:13;;;;;;;6.10;4.65;;;14.80;80.00;;;;;;5132727;27;20023;-77
2022/03/01 11:40:41;;;;;;;8.63;5.05;;;14.90;79.20;;;;;;5133079;27;20045;-78
2022/03/01 11:43:13;;;;;;;7.80;5.28;;;14.90;78.20;;;;;;5111169;27;20027;-79
2022/03/01 11:45:43;;;;;;;7.38;5.00;;;14.90;79.50;;;;;;5116515;28;20121;-80
2022/03/01 11:48:18;;;;;;;8.70;4.93;;;15.00;79.30;;;;;;5133376;27;20403;-79
2022/03/01 11:51:04;;;;;;;10.82;5.65;;;15.10;79.10;;;;;;5133148;27;20072;-79
2022/03/01 11:53:40;;;;;;;8.27;5.40;;;15.00;78.60;;;;;;5133677;27;20015;-79
2022/03/01 11:56:07;;;;;;;8.75;5.35;;;14.80;78.20;;;;;;5133048;27;20066;-79
2022/03/01 11:58:39;;;;;;;7.90;5.60;;;14.70;78.10;;;;;;5132516;27;20023;-78
2022/03/01 12:01:07;;;;;;;8.07;5.40;;;14.60;78.50;;;;;;5118775;27;22138;-79
2022/03/01 12:03:38;;;;;;;9.32;5.50;;;14.60;78.40;;;;;;5130923;27;20015;-78
2022/03/01 12:06:07;;;;;;;8.18;5.72;;;14.50;79.50;;;;;;5131414;27;20036;-78
2022/03/01 12:08:37;;;;;;;8.18;5.07;;;14.50;79.30;;;;;;5133209;27;20064;-78
2022/03/01 12:11:09;;;;;;;8.60;5.82;;;14.50;79.10;;;;;;5130997;27;20022;-79
2022/03/01 12:13:40;;;;;;;7.68;5.15;;;14.40;79.30;;;;;;5128818;27;20019;-80
2022/03/01 12:16:11;;;;;;;9.52;5.65;;;14.40;79.80;;;;;;5130931;27;20083;-80
2022/03/01 12:18:38;;;;;;;9.02;5.78;;;14.50;79.50;;;;;;5128469;27;20019;-80
2022/03/01 12:21:12;;;;;;;7.88;5.50;;;14.50;80.20;;;;;;5111651;27;20027;-81
2022/03/01 12:23:40;;;;;;;8.50;5.00;;;14.50;79.10;;;;;;5114900;27;20023;-80
2022/03/01 12:26:09;;;;;;;8.88;4.70;;;14.50;78.90;;;;;;5113660;27;20027;-80
2022/03/01 12:28:43;;;;;;;6.72;4.88;;;14.50;78.60;;;;;;5132706;27;20023;-81
2022/03/01 12:31:13;;;;;;;7.32;4.82;;;14.50;78.60;;;;;;5131142;27;20395;-81
2022/03/01 12:33:59;;;;;;;9.40;4.32;;;14.40;78.00;;;;;;5110361;27;20030;-79
2022/03/01 12:36:32;;;;;;;9.05;4.45;;;14.50;79.30;;;;;;5127830;27;20084;-78
2022/03/01 12:39:03;;;;;;;6.50;4.30;;;14.50;78.20;;;;;;5132466;27;20046;-79
2022/03/01 12:41:28;;;;;;;7.28;4.40;;;14.60;78.30;;;;;;5132927;27;20114;-80
2022/03/01 12:44:00;;;;;;;9.73;4.63;;;14.70;77.90;;;;;;5129592;27;20118;-79
2022/03/01 12:46:27;;;;;;;8.30;5.10;;;14.70;77.40;;;;;;5130357;27;20019;-80
2022/03/01 12:48:53;;;;;;;7.60;4.90;;;14.60;77.40;;;;;;5113067;27;20026;-80